createdAt,value
2024-04-25T00:00:47.397Z,1.7
2024-04-25T00:01:47.347Z,1.5
2024-04-25T00:02:47.420Z,1.1
2024-04-25T00:03:47.501Z,0.8
2024-04-25T00:04:47.333Z,1.1
2024-04-25T00:05:47.413Z,1.4
2024-04-25T00:06:47.367Z,1.5
2024-04-25T00:07:47.376Z,1.1
2024-04-25T00:08:47.377Z,0.9
2024-04-25T00:09:47.385Z,1
2024-04-25T00:10:47.376Z,2.7
2024-04-25T00:11:47.348Z,1.1
2024-04-25T00:12:47.380Z,1.5
2024-04-25T00:13:47.384Z,2.1
2024-04-25T00:14:47.356Z,2.1
2024-04-25T00:15:47.346Z,1.5
2024-04-25T00:16:47.383Z,1
2024-04-25T00:17:47.415Z,0.9
2024-04-25T00:18:47.376Z,1.7
2024-04-25T00:19:47.373Z,1.3
2024-04-25T00:20:47.378Z,1.6
2024-04-25T00:21:47.354Z,1.8
2024-04-25T00:22:47.368Z,1.1
2024-04-25T00:23:47.385Z,1.7
2024-04-25T00:24:47.357Z,1.2
2024-04-25T00:25:47.393Z,1.5
2024-04-25T00:26:47.386Z,1.9
2024-04-25T00:27:47.381Z,1.5
2024-04-25T00:28:47.384Z,1.6
2024-04-25T00:29:47.381Z,1.1
2024-04-25T00:30:47.355Z,1.6
2024-04-25T00:31:47.360Z,1.7
2024-04-25T00:32:47.523Z,1.6
2024-04-25T00:33:47.466Z,1.6
2024-04-25T00:34:47.364Z,1.4
2024-04-25T00:35:47.383Z,1.9
2024-04-25T00:36:47.366Z,1.2
2024-04-25T00:37:47.338Z,1.4
2024-04-25T00:38:47.375Z,1.4
2024-04-25T00:39:47.342Z,1.4
2024-04-25T00:40:47.353Z,1.4
2024-04-25T00:41:47.353Z,1.2
2024-04-25T00:42:47.337Z,1.5
2024-04-25T00:43:47.374Z,1.2
2024-04-25T00:44:47.363Z,1.4
2024-04-25T00:45:47.368Z,1.4
2024-04-25T00:46:47.418Z,1.2
2024-04-25T00:47:47.522Z,1.3
2024-04-25T00:48:47.394Z,1.3
2024-04-25T00:49:47.382Z,1.3
2024-04-25T00:50:47.415Z,1.2
2024-04-25T00:51:47.320Z,1.3
2024-04-25T00:52:47.366Z,1.2
2024-04-25T00:53:47.380Z,1.2
2024-04-25T00:54:47.372Z,1.4
2024-04-25T00:55:47.394Z,1.4
2024-04-25T00:56:47.372Z,1.3
2024-04-25T00:57:47.383Z,1.3
2024-04-25T00:58:47.363Z,1.3
2024-04-25T00:59:47.349Z,1.3
2024-04-25T01:00:47.458Z,1.6
2024-04-25T01:01:47.364Z,1.1
2024-04-25T01:02:47.540Z,1.5
2024-04-25T01:03:47.408Z,1.5
2024-04-25T01:04:47.364Z,1.3
2024-04-25T01:05:47.364Z,1.4
2024-04-25T01:06:47.373Z,1.4
2024-04-25T01:07:47.381Z,1.7
2024-04-25T01:08:47.395Z,1.8
2024-04-25T01:09:47.379Z,1.2
2024-04-25T01:10:47.394Z,1.3
2024-04-25T01:11:47.391Z,1.3
2024-04-25T01:12:47.373Z,1.4
2024-04-25T01:13:47.365Z,1
2024-04-25T01:14:47.358Z,1.1
2024-04-25T01:15:47.381Z,1.3
2024-04-25T01:16:47.402Z,0.9
2024-04-25T01:17:47.470Z,1.2
2024-04-25T01:18:47.376Z,1.2
2024-04-25T01:19:47.382Z,1.3
2024-04-25T01:20:47.382Z,1.5
2024-04-25T01:21:47.368Z,1.4
2024-04-25T01:22:47.327Z,1.2
2024-04-25T01:23:47.347Z,1.3
2024-04-25T01:24:47.362Z,1.3
2024-04-25T01:25:47.371Z,1.2
2024-04-25T01:26:47.352Z,1.4
2024-04-25T01:27:47.375Z,0.9
2024-04-25T01:28:47.346Z,1.1
2024-04-25T01:29:47.353Z,1.4
2024-04-25T01:30:47.402Z,1.4
2024-04-25T01:31:47.371Z,1
2024-04-25T01:32:47.471Z,1.3
2024-04-25T01:33:47.373Z,1.2
2024-04-25T01:34:47.355Z,1.3
2024-04-25T01:35:47.447Z,1.2
2024-04-25T01:36:47.370Z,1.3
2024-04-25T01:37:47.354Z,1.5
2024-04-25T01:38:47.373Z,1.3
2024-04-25T01:39:47.373Z,1
2024-04-25T01:40:47.391Z,1.4
2024-04-25T01:41:47.366Z,1.4
2024-04-25T01:42:47.371Z,1.3
2024-04-25T01:43:47.375Z,1.2
2024-04-25T01:44:47.361Z,1.2
2024-04-25T01:45:47.387Z,1.3
2024-04-25T01:46:47.351Z,1.3
2024-04-25T01:47:47.462Z,1.3
2024-04-25T01:48:47.545Z,1.1
2024-04-25T01:49:47.318Z,1.1
2024-04-25T01:50:47.381Z,1
2024-04-25T01:51:47.369Z,1.3
2024-04-25T01:52:47.401Z,1.3
2024-04-25T01:53:47.310Z,1.5
2024-04-25T01:54:47.355Z,1.5
2024-04-25T01:55:47.352Z,1.2
2024-04-25T01:56:47.378Z,1.4
2024-04-25T01:57:47.356Z,1.7
2024-04-25T01:58:47.367Z,1.8
2024-04-25T01:59:47.363Z,2.1
2024-04-25T02:00:47.411Z,2.3
2024-04-25T02:01:47.376Z,2
2024-04-25T02:02:47.465Z,2
2024-04-25T02:03:47.418Z,2.3
2024-04-25T02:04:47.392Z,2.1
2024-04-25T02:05:47.367Z,1.2
2024-04-25T02:06:47.381Z,1.7
2024-04-25T02:07:47.374Z,2.2
2024-04-25T02:08:47.361Z,2.3
2024-04-25T02:09:47.297Z,1.9
2024-04-25T02:10:47.341Z,2.2
2024-04-25T02:11:47.420Z,2
2024-04-25T02:12:47.377Z,1.5
2024-04-25T02:13:47.324Z,1.8
2024-04-25T02:14:47.372Z,2.1
2024-04-25T02:15:47.378Z,2.4
2024-04-25T02:16:47.378Z,2.2
2024-04-25T02:17:47.461Z,1.9
2024-04-25T02:18:47.480Z,1.9
2024-04-25T02:19:47.356Z,1.8
2024-04-25T02:20:47.382Z,2
2024-04-25T02:21:47.378Z,1.7
2024-04-25T02:22:47.408Z,1.3
2024-04-25T02:23:47.382Z,1.5
2024-04-25T02:24:47.358Z,1.6
2024-04-25T02:25:47.366Z,1.5
2024-04-25T02:26:47.338Z,1.2
2024-04-25T02:27:47.374Z,1.4
2024-04-25T02:28:47.356Z,1.6
2024-04-25T02:29:47.385Z,1.4
2024-04-25T02:30:47.375Z,1.4
2024-04-25T02:31:47.435Z,1.5
2024-04-25T02:32:47.465Z,0.9
2024-04-25T02:33:47.382Z,1.3
2024-04-25T02:34:47.395Z,1.5
2024-04-25T02:35:47.372Z,1.3
2024-04-25T02:36:47.392Z,1
2024-04-25T02:37:47.389Z,1
2024-04-25T02:38:47.352Z,1.3
2024-04-25T02:39:47.363Z,1.3
2024-04-25T02:40:47.339Z,1.6
2024-04-25T02:41:47.368Z,1.3
2024-04-25T02:42:47.354Z,1.3
2024-04-25T02:43:47.362Z,1.9
2024-04-25T02:44:47.383Z,1.5
2024-04-25T02:45:47.359Z,1.5
2024-04-25T02:46:47.393Z,1.4
2024-04-25T02:47:47.456Z,1.2
2024-04-25T02:48:47.403Z,1.1
2024-04-25T02:49:47.350Z,1.2
2024-04-25T02:50:47.364Z,1.6
2024-04-25T02:51:47.380Z,1
2024-04-25T02:52:47.387Z,1.1
2024-04-25T02:53:47.401Z,1.2
2024-04-25T02:54:47.359Z,1.4
2024-04-25T02:55:47.350Z,1.4
2024-04-25T02:56:47.463Z,1.5
2024-04-25T02:57:47.383Z,1.6
2024-04-25T02:58:47.392Z,1.4
2024-04-25T02:59:47.386Z,1.4
2024-04-25T03:00:47.413Z,1
2024-04-25T03:01:47.383Z,0.6
2024-04-25T03:02:47.527Z,0.8
2024-04-25T03:03:47.429Z,1.1
2024-04-25T03:04:47.369Z,1
2024-04-25T03:05:47.437Z,0.7
2024-04-25T03:06:47.362Z,0.1
2024-04-25T03:07:47.392Z,0.3
2024-04-25T03:08:47.389Z,0.1
2024-04-25T03:09:47.379Z,0.6
2024-04-25T03:10:47.378Z,1
2024-04-25T03:11:47.482Z,1.3
2024-04-25T03:12:47.369Z,0.9
2024-04-25T03:13:47.365Z,0.8
2024-04-25T03:14:47.432Z,0.4
2024-04-25T03:15:47.378Z,0.3
2024-04-25T03:16:47.345Z,0.4
2024-04-25T03:17:47.444Z,0.5
2024-04-25T03:18:47.547Z,0.7
2024-04-25T03:19:47.376Z,1.3
2024-04-25T03:20:47.378Z,1.4
2024-04-25T03:21:47.337Z,1.2
2024-04-25T03:22:47.342Z,1.2
2024-04-25T03:23:47.426Z,1.1
2024-04-25T03:24:47.391Z,1.1
2024-04-25T03:25:47.308Z,1.2
2024-04-25T03:26:47.408Z,1.7
2024-04-25T03:27:47.353Z,1.5
2024-04-25T03:28:47.357Z,1.4
2024-04-25T03:29:47.364Z,1.3
2024-04-25T03:30:47.342Z,1.1
2024-04-25T03:31:47.392Z,1.5
2024-04-25T03:32:47.537Z,1.4
2024-04-25T03:33:47.417Z,1.4
2024-04-25T03:34:47.303Z,1.6
2024-04-25T03:35:47.407Z,1
2024-04-25T03:36:47.360Z,1.5
2024-04-25T03:37:47.397Z,1.3
2024-04-25T03:38:47.402Z,2.3
2024-04-25T03:39:47.366Z,1.9
2024-04-25T03:40:47.337Z,2.4
2024-04-25T03:41:47.404Z,0.9
2024-04-25T03:42:47.391Z,1.2
2024-04-25T03:43:47.387Z,1.2
2024-04-25T03:44:47.372Z,1.5
2024-04-25T03:45:47.376Z,0.7
2024-04-25T03:46:47.389Z,0.8
2024-04-25T03:47:47.470Z,1.4
2024-04-25T03:48:47.511Z,1
2024-04-25T03:49:47.368Z,1.7
2024-04-25T03:50:47.408Z,2.2
2024-04-25T03:51:47.382Z,1.9
2024-04-25T03:52:47.344Z,1.4
2024-04-25T03:53:47.479Z,1.2
2024-04-25T03:54:47.355Z,1
2024-04-25T03:55:47.375Z,0.9
2024-04-25T03:56:47.410Z,1.2
2024-04-25T03:57:47.349Z,0.9
2024-04-25T03:58:47.369Z,1.1
2024-04-25T03:59:47.403Z,1.3
2024-04-25T04:00:47.406Z,1.1
2024-04-25T04:01:47.404Z,0.9
2024-04-25T04:02:47.459Z,1.2
2024-04-25T04:03:47.395Z,1.1
2024-04-25T04:04:47.370Z,0.9
2024-04-25T04:05:47.371Z,1.4
2024-04-25T04:06:47.374Z,1.3
2024-04-25T04:07:47.361Z,0.6
2024-04-25T04:08:47.403Z,0.4
2024-04-25T04:09:47.370Z,0.5
2024-04-25T04:10:47.452Z,0.9
2024-04-25T04:11:47.492Z,1.1
2024-04-25T04:12:47.375Z,0.9
2024-04-25T04:13:47.352Z,1.5
2024-04-25T04:14:47.424Z,1.3
2024-04-25T04:15:47.382Z,1.4
2024-04-25T04:16:47.385Z,1.3
2024-04-25T04:17:47.456Z,1.6
2024-04-25T04:18:47.365Z,2
2024-04-25T04:19:47.382Z,1.3
2024-04-25T04:20:47.421Z,1.1
2024-04-25T04:21:47.356Z,1.6
2024-04-25T04:22:47.371Z,1.2
2024-04-25T04:23:47.419Z,0.9
2024-04-25T04:24:47.373Z,1.4
2024-04-25T04:25:47.367Z,1
2024-04-25T04:26:47.432Z,0.9
2024-04-25T04:27:47.363Z,0.7
2024-04-25T04:28:47.332Z,0.4
2024-04-25T04:29:47.423Z,0.8
2024-04-25T04:30:47.385Z,0.8
2024-04-25T04:31:47.332Z,0.4
2024-04-25T04:32:47.503Z,0.3
2024-04-25T04:33:47.514Z,0.9
2024-04-25T04:34:47.382Z,0.5
2024-04-25T04:35:47.369Z,1
2024-04-25T04:36:47.375Z,0.8
2024-04-25T04:37:47.351Z,0.3
2024-04-25T04:38:47.353Z,0.6
2024-04-25T04:39:47.358Z,0.4
2024-04-25T04:40:47.353Z,0.2
2024-04-25T04:41:47.342Z,0.1
2024-04-25T04:42:47.358Z,0.3
2024-04-25T04:43:47.397Z,0.5
2024-04-25T04:44:49.731Z,0
2024-04-25T04:45:47.373Z,0.5
2024-04-25T04:46:47.393Z,0.7
2024-04-25T04:47:47.408Z,0.7
2024-04-25T04:48:47.611Z,0.6
2024-04-25T04:49:47.370Z,0.7
2024-04-25T04:50:47.384Z,1.1
2024-04-25T04:51:47.362Z,1.2
2024-04-25T04:52:47.331Z,1.5
2024-04-25T04:53:47.366Z,1.8
2024-04-25T04:54:47.331Z,1.3
2024-04-25T04:55:47.370Z,1.6
2024-04-25T04:56:47.369Z,1.3
2024-04-25T04:57:47.337Z,1.6
2024-04-25T04:58:47.375Z,1.4
2024-04-25T04:59:47.386Z,0.5
2024-04-25T05:00:47.408Z,0.6
2024-04-25T05:01:47.389Z,0.7
2024-04-25T05:02:47.421Z,0.3
2024-04-25T05:03:47.442Z,0.7
2024-04-25T05:04:47.385Z,1.1
2024-04-25T05:05:47.388Z,0.6
2024-04-25T05:06:47.378Z,0.6
2024-04-25T05:07:47.379Z,0.4
2024-04-25T05:08:47.358Z,0.4
2024-04-25T05:09:47.362Z,0.4
2024-04-25T05:10:47.349Z,0.6
2024-04-25T05:11:47.487Z,0.5
2024-04-25T05:12:47.372Z,0.8
2024-04-25T05:13:47.384Z,0.4
2024-04-25T05:14:47.400Z,1
2024-04-25T05:15:47.400Z,0.5
2024-04-25T05:16:47.364Z,0.6
2024-04-25T05:17:47.344Z,0.1
2024-04-25T05:18:47.403Z,0.7
2024-04-25T05:19:47.382Z,0.7
2024-04-25T05:20:47.408Z,0.5
2024-04-25T05:21:47.353Z,0.4
2024-04-25T05:22:47.355Z,1.2
2024-04-25T05:23:48.947Z,0.8
2024-04-25T05:24:47.355Z,1
2024-04-25T05:25:47.357Z,1.3
2024-04-25T05:26:47.380Z,1.1
2024-04-25T05:27:47.376Z,0.7
2024-04-25T05:28:47.374Z,1
2024-04-25T05:29:47.387Z,0.6
2024-04-25T05:30:47.453Z,0.8
2024-04-25T05:31:47.384Z,0.9
2024-04-25T05:32:47.503Z,1.1
2024-04-25T05:33:47.458Z,1.2
2024-04-25T05:34:47.338Z,0.8
2024-04-25T05:35:47.392Z,1.1
2024-04-25T05:36:47.371Z,0.9
2024-04-25T05:37:47.359Z,0.8
2024-04-25T05:38:47.530Z,1.3
2024-04-25T05:39:47.368Z,1.3
2024-04-25T05:40:47.362Z,1.3
2024-04-25T05:41:47.405Z,1.4
2024-04-25T05:42:47.370Z,1.4
2024-04-25T05:43:47.390Z,1.1
2024-04-25T05:44:47.382Z,0.3
2024-04-25T05:45:47.368Z,0.6
2024-04-25T05:46:47.359Z,0.7
2024-04-25T05:47:47.498Z,0.8
2024-04-25T05:48:47.483Z,0.7
2024-04-25T05:49:47.384Z,0.6
2024-04-25T05:50:47.455Z,0.5
2024-04-25T05:51:47.350Z,0.7
2024-04-25T05:52:47.403Z,0.5
2024-04-25T05:53:47.369Z,0.5
2024-04-25T05:54:47.380Z,0.6
2024-04-25T05:55:47.433Z,0.3
2024-04-25T05:56:47.331Z,0.2
2024-04-25T05:57:47.340Z,0.5
2024-04-25T05:58:47.401Z,0.5
2024-04-25T05:59:47.366Z,0.3
2024-04-25T06:00:47.400Z,0.2
2024-04-25T06:01:47.368Z,0.2
2024-04-25T06:02:47.425Z,1.1
2024-04-25T06:03:47.429Z,0.5
2024-04-25T06:04:47.377Z,0.7
2024-04-25T06:05:47.412Z,0.6
2024-04-25T06:06:47.351Z,0.6
2024-04-25T06:07:47.344Z,0.4
2024-04-25T06:08:47.440Z,0.5
2024-04-25T06:09:47.375Z,0.6
2024-04-25T06:10:47.635Z,0.6
2024-04-25T06:11:47.555Z,1.1
2024-04-25T06:12:47.483Z,1.1
2024-04-25T06:13:47.378Z,0.6
2024-04-25T06:14:47.402Z,0.6
2024-04-25T06:15:47.346Z,1.1
2024-04-25T06:16:47.389Z,0.5
2024-04-25T06:17:47.409Z,0.5
2024-04-25T06:18:47.361Z,0.5
2024-04-25T06:19:47.382Z,0.5
2024-04-25T06:20:47.482Z,0.8
2024-04-25T06:21:47.371Z,0.7
2024-04-25T06:22:47.397Z,0.5
2024-04-25T06:23:47.464Z,0.3
2024-04-25T06:24:47.379Z,0.1
2024-04-25T06:25:47.375Z,0.4
2024-04-25T06:26:47.402Z,0.8
2024-04-25T06:27:47.389Z,0.4
2024-04-25T06:28:47.343Z,0.4
2024-04-25T06:29:47.389Z,0.8
2024-04-25T06:30:47.375Z,1.3
2024-04-25T06:31:47.338Z,0.6
2024-04-25T06:32:47.483Z,0.7
2024-04-25T06:33:47.422Z,0.3
2024-04-25T06:34:47.330Z,0.5
2024-04-25T06:35:47.395Z,0.5
2024-04-25T06:36:47.366Z,0.6
2024-04-25T06:37:48.098Z,0.8
2024-04-25T06:38:47.409Z,0.8
2024-04-25T06:39:47.389Z,0.4
2024-04-25T06:40:47.353Z,1.2
2024-04-25T06:41:53.960Z,1.3
2024-04-25T06:42:47.376Z,0.9
2024-04-25T06:43:47.340Z,0.5
2024-04-25T06:44:53.174Z,1.3
2024-04-25T06:45:47.349Z,1.7
2024-04-25T06:46:47.389Z,1
2024-04-25T06:47:47.432Z,0.8
2024-04-25T06:48:48.700Z,0.8
2024-04-25T06:49:47.381Z,0.8
2024-04-25T06:50:47.427Z,1.6
2024-04-25T06:51:47.379Z,1.1
2024-04-25T06:52:47.339Z,0.8
2024-04-25T06:53:47.382Z,1.3
2024-04-25T06:54:47.353Z,0.8
2024-04-25T06:55:47.376Z,1.5
2024-04-25T06:56:47.367Z,1.5
2024-04-25T06:57:47.380Z,1.2
2024-04-25T06:58:47.352Z,0.8
2024-04-25T06:59:48.486Z,0.9
2024-04-25T07:00:47.374Z,1.3
2024-04-25T07:01:47.369Z,2
2024-04-25T07:02:47.340Z,1.7
2024-04-25T07:03:47.398Z,0.8
2024-04-25T07:04:47.387Z,1.1
2024-04-25T07:05:47.470Z,1.9
2024-04-25T07:06:47.391Z,1.6
2024-04-25T07:07:47.397Z,2.8
2024-04-25T07:08:47.391Z,1.3
2024-04-25T07:09:47.362Z,0.7
2024-04-25T07:10:47.479Z,1.6
2024-04-25T07:11:47.380Z,2.7
2024-04-25T07:12:47.374Z,1
2024-04-25T07:13:47.356Z,0.7
2024-04-25T07:14:47.406Z,1.9
2024-04-25T07:15:47.381Z,2.3
2024-04-25T07:16:47.400Z,1.6
2024-04-25T07:17:47.568Z,0.2
2024-04-25T07:18:47.406Z,0.8
2024-04-25T07:19:47.354Z,1.5
2024-04-25T07:20:47.404Z,1
2024-04-25T07:21:47.361Z,2
2024-04-25T07:22:47.387Z,1.1
2024-04-25T07:23:47.403Z,1.8
2024-04-25T07:24:47.353Z,0.8
2024-04-25T07:25:47.404Z,1.4
2024-04-25T07:26:47.470Z,1.3
2024-04-25T07:27:47.357Z,1.4
2024-04-25T07:28:47.376Z,0.9
2024-04-25T07:29:47.413Z,1.4
2024-04-25T07:30:47.381Z,0.8
2024-04-25T07:31:47.346Z,1.1
2024-04-25T07:32:47.457Z,0.6
2024-04-25T07:33:47.455Z,2.1
2024-04-25T07:34:47.363Z,2.1
2024-04-25T07:35:47.459Z,1.4
2024-04-25T07:36:47.343Z,1.2
2024-04-25T07:37:47.370Z,1.1
2024-04-25T07:38:47.401Z,0.4
2024-04-25T07:39:47.409Z,1.5
2024-04-25T07:40:47.376Z,1.9
2024-04-25T07:41:47.398Z,1.1
2024-04-25T07:42:47.350Z,1.7
2024-04-25T07:43:47.358Z,1.1
2024-04-25T07:44:47.415Z,1
2024-04-25T07:45:47.701Z,1
2024-04-25T07:46:47.351Z,0.9
2024-04-25T07:47:47.503Z,1.5
2024-04-25T07:48:47.442Z,2.3
2024-04-25T07:49:47.365Z,1.4
2024-04-25T07:50:47.426Z,1.7
2024-04-25T07:51:47.368Z,0.7
2024-04-25T07:52:47.394Z,2.1
2024-04-25T07:53:47.471Z,2.5
2024-04-25T07:54:47.356Z,2.9
2024-04-25T07:55:47.373Z,2.5
2024-04-25T07:56:47.473Z,2.1
2024-04-25T07:57:47.385Z,2.4
2024-04-25T07:58:47.359Z,1.5
2024-04-25T07:59:47.426Z,3.7
2024-04-25T08:00:47.404Z,2.2
2024-04-25T08:01:47.384Z,3.1
2024-04-25T08:02:49.494Z,2.3
2024-04-25T08:03:47.363Z,2.2
2024-04-25T08:04:47.362Z,2.9
2024-04-25T08:05:47.520Z,2.2
2024-04-25T08:06:47.297Z,3.1
2024-04-25T08:07:47.400Z,2.4
2024-04-25T08:08:47.397Z,2.1
2024-04-25T08:09:47.382Z,2.7
2024-04-25T08:10:47.437Z,2.8
2024-04-25T08:11:47.410Z,2.4
2024-04-25T08:12:47.371Z,1.4
2024-04-25T08:13:47.373Z,2.9
2024-04-25T08:14:47.463Z,3.4
2024-04-25T08:15:47.546Z,3.1
2024-04-25T08:16:47.355Z,1.4
2024-04-25T08:17:47.401Z,2.3
2024-04-25T08:18:47.365Z,2.8
2024-04-25T08:19:47.379Z,1.6
2024-04-25T08:20:47.374Z,2.3
2024-04-25T08:21:47.363Z,3.2
2024-04-25T08:22:47.352Z,3.3
2024-04-25T08:23:47.434Z,3.2
2024-04-25T08:24:47.332Z,1.5
2024-04-25T08:25:47.390Z,1.3
2024-04-25T08:26:47.382Z,1.2
2024-04-25T08:27:47.342Z,1.6
2024-04-25T08:28:47.375Z,2.9
2024-04-25T08:29:47.430Z,1.7
2024-04-25T08:30:47.379Z,2.1
2024-04-25T08:31:47.386Z,2.6
2024-04-25T08:32:47.562Z,2.6
2024-04-25T08:33:47.557Z,1.6
2024-04-25T08:34:47.390Z,2.2
2024-04-25T08:35:47.465Z,3.6
2024-04-25T08:36:47.365Z,2.2
2024-04-25T08:37:47.387Z,1.9
2024-04-25T08:38:50.304Z,3.5
2024-04-25T08:39:47.381Z,0.9
2024-04-25T08:40:47.396Z,2.1
2024-04-25T08:41:47.380Z,2.5
2024-04-25T08:42:47.372Z,2.9
2024-04-25T08:43:47.381Z,1
2024-04-25T08:44:47.388Z,2.6
2024-04-25T08:45:47.373Z,1.2
2024-04-25T08:46:47.486Z,1.9
2024-04-25T08:47:47.434Z,2.5
2024-04-25T08:48:47.359Z,2.5
2024-04-25T08:49:47.373Z,2.3
2024-04-25T08:50:47.415Z,2.5
2024-04-25T08:51:47.351Z,3.1
2024-04-25T08:52:47.386Z,3.1
2024-04-25T08:53:47.347Z,1.9
2024-04-25T08:54:47.358Z,1.9
2024-04-25T08:55:47.372Z,2.2
2024-04-25T08:56:47.334Z,0.4
2024-04-25T08:57:47.375Z,1.7
2024-04-25T08:58:47.355Z,1.4
2024-04-25T08:59:47.392Z,1.3
2024-04-25T09:00:47.321Z,1.2
2024-04-25T09:01:47.343Z,2
2024-04-25T09:02:47.429Z,1.9
2024-04-25T09:03:47.383Z,1
2024-04-25T09:04:47.356Z,0.4
2024-04-25T09:05:47.497Z,2.6
2024-04-25T09:06:47.374Z,1.9
2024-04-25T09:07:47.331Z,3.2
2024-04-25T09:08:47.394Z,0.8
2024-04-25T09:09:47.371Z,0.7
2024-04-25T09:10:47.376Z,1.1
2024-04-25T09:11:47.396Z,2.2
2024-04-25T09:12:47.407Z,2.8
2024-04-25T09:13:47.379Z,2.1
2024-04-25T09:14:47.354Z,2.3
2024-04-25T09:15:47.395Z,2.4
2024-04-25T09:16:47.384Z,1.3
2024-04-25T09:17:47.436Z,1.3
2024-04-25T09:18:47.365Z,1.3
2024-04-25T09:19:47.406Z,1.6
2024-04-25T09:20:47.417Z,1.3
2024-04-25T09:21:47.410Z,0.5
2024-04-25T09:22:47.367Z,1.8
2024-04-25T09:23:47.472Z,1.5
2024-04-25T09:24:47.359Z,3
2024-04-25T09:25:48.383Z,0.9
2024-04-25T09:26:47.510Z,2.5
2024-04-25T09:27:47.361Z,2.9
2024-04-25T09:28:47.615Z,1.5
2024-04-25T09:29:47.392Z,1
2024-04-25T09:30:47.380Z,0.7
2024-04-25T09:31:47.346Z,0.5
2024-04-25T09:32:47.515Z,0.5
2024-04-25T09:33:47.445Z,0.8
2024-04-25T09:34:47.379Z,0.4
2024-04-25T09:35:47.387Z,1.4
2024-04-25T09:36:47.361Z,0.7
2024-04-25T09:37:47.378Z,0.8
2024-04-25T09:38:47.500Z,0.3
2024-04-25T09:40:50.741Z,0.6
2024-04-25T09:41:47.392Z,0.8
2024-04-25T09:42:47.421Z,2.3
2024-04-25T09:43:47.351Z,1.2
2024-04-25T09:44:47.376Z,0.8
2024-04-25T09:45:47.432Z,1.6
2024-04-25T09:46:47.401Z,0.9
2024-04-25T09:47:47.603Z,1.6
2024-04-25T09:48:47.393Z,0.6
2024-04-25T09:49:47.338Z,0.5
2024-04-25T09:50:47.469Z,1.5
2024-04-25T09:51:47.395Z,1.1
2024-04-25T09:52:47.387Z,0.6
2024-04-25T09:53:47.468Z,0.5
2024-04-25T09:54:47.373Z,0.2
2024-04-25T09:55:47.382Z,1.3
2024-04-25T09:56:47.380Z,1.1
2024-04-25T09:57:47.375Z,1.3
2024-04-25T09:58:47.374Z,1
2024-04-25T09:59:47.389Z,2.8
2024-04-25T10:00:47.409Z,2.9
2024-04-25T10:01:47.350Z,1.3
2024-04-25T10:02:47.382Z,1.1
2024-04-25T10:03:47.450Z,1.8
2024-04-25T10:04:47.371Z,0.6
2024-04-25T10:05:47.497Z,1
2024-04-25T10:06:47.343Z,1.2
2024-04-25T10:07:47.376Z,1.6
2024-04-25T10:08:47.412Z,0.6
2024-04-25T10:09:47.381Z,1.3
2024-04-25T10:10:47.528Z,1.3
2024-04-25T10:11:47.440Z,0.6
2024-04-25T10:12:47.343Z,2.2
2024-04-25T10:13:47.386Z,2.1
2024-04-25T10:14:47.957Z,2.2
2024-04-25T10:15:47.989Z,2.4
2024-04-25T10:16:47.352Z,2.6
2024-04-25T10:17:47.432Z,1.7
2024-04-25T10:18:47.474Z,1.9
2024-04-25T10:19:47.373Z,1.1
2024-04-25T10:20:47.446Z,1.4
2024-04-25T10:21:47.365Z,1.9
2024-04-25T10:22:47.344Z,1
2024-04-25T10:23:47.444Z,2.2
2024-04-25T10:24:47.356Z,2.5
2024-04-25T10:25:47.354Z,2.4
2024-04-25T10:26:47.409Z,1.4
2024-04-25T10:27:47.372Z,1.3
2024-04-25T10:28:47.374Z,1
2024-04-25T10:29:47.352Z,0.8
2024-04-25T10:30:47.373Z,1
2024-04-25T10:31:47.397Z,0.4
2024-04-25T10:32:47.459Z,1
2024-04-25T10:33:47.421Z,1.8
2024-04-25T10:34:47.356Z,2.1
2024-04-25T10:35:47.463Z,1.1
2024-04-25T10:36:47.337Z,0.4
2024-04-25T10:37:49.547Z,0.9
2024-04-25T10:38:55.649Z,2.1
2024-04-25T10:39:47.362Z,1.4
2024-04-25T10:40:47.366Z,1
2024-04-25T10:41:47.493Z,1.3
2024-04-25T10:42:47.385Z,1.2
2024-04-25T10:43:47.375Z,1.1
2024-04-25T10:44:47.583Z,0.9
2024-04-25T10:45:47.368Z,1.9
2024-04-25T10:46:47.389Z,2.6
2024-04-25T10:47:47.477Z,4.1
2024-04-25T10:48:47.469Z,1.9
2024-04-25T10:49:47.391Z,3.4
2024-04-25T10:50:47.463Z,3.2
2024-04-25T10:51:47.376Z,2.4
2024-04-25T10:52:47.364Z,2.1
2024-04-25T10:53:47.433Z,2.5
2024-04-25T10:54:47.372Z,1.8
2024-04-25T10:55:47.384Z,2.5
2024-04-25T10:56:47.430Z,0.7
2024-04-25T10:57:47.383Z,1.1
2024-04-25T10:58:47.352Z,3.3
2024-04-25T10:59:47.410Z,2.1
2024-04-25T11:00:47.382Z,2.8
2024-04-25T11:01:47.364Z,2.6
2024-04-25T11:02:47.497Z,2.5
2024-04-25T11:03:47.376Z,2.8
2024-04-25T11:04:47.326Z,1.9
2024-04-25T11:05:47.572Z,3
2024-04-25T11:06:47.382Z,2.6
2024-04-25T11:07:47.349Z,3.1
2024-04-25T11:08:47.425Z,2.5
2024-04-25T11:09:47.414Z,2.7
2024-04-25T11:10:47.400Z,2.9
2024-04-25T11:11:47.392Z,1.8
2024-04-25T11:12:47.383Z,1.5
2024-04-25T11:13:47.353Z,1.2
2024-04-25T11:14:47.509Z,2.3
2024-04-25T11:15:47.371Z,0.7
2024-04-25T11:16:47.394Z,1.1
2024-04-25T11:17:56.672Z,2.4
2024-04-25T11:18:50.180Z,3.4
2024-04-25T11:19:49.930Z,1.8
2024-04-25T11:20:47.567Z,2.3
2024-04-25T11:21:47.544Z,1
2024-04-25T11:22:52.331Z,0.9
2024-04-25T11:23:47.440Z,1.3
2024-04-25T11:24:47.369Z,1.6
2024-04-25T11:25:51.150Z,2.5
2024-04-25T11:26:47.404Z,1.3
2024-04-25T11:27:47.373Z,2.4
2024-04-25T11:28:47.405Z,0.5
2024-04-25T11:29:47.438Z,3.1
2024-04-25T11:30:47.354Z,3.9
2024-04-25T11:31:47.372Z,2.6
2024-04-25T11:32:47.671Z,5
2024-04-25T11:33:47.621Z,4.3
2024-04-25T11:34:47.393Z,1.9
2024-04-25T11:35:47.602Z,3.1
2024-04-25T11:36:47.402Z,3.7
2024-04-25T11:37:47.390Z,2
2024-04-25T11:38:47.386Z,2
2024-04-25T11:39:47.402Z,2.2
2024-04-25T11:40:47.365Z,3.2
2024-04-25T11:41:47.464Z,3
2024-04-25T11:42:47.360Z,3.7
2024-04-25T11:43:47.385Z,2.5
2024-04-25T11:44:47.439Z,1.9
2024-04-25T11:45:47.386Z,4.3
2024-04-25T11:46:47.359Z,5.3
2024-04-25T11:47:47.483Z,3.5
2024-04-25T11:48:47.508Z,4.2
2024-04-25T11:49:47.377Z,4
2024-04-25T11:50:47.535Z,2.5
2024-04-25T11:51:47.389Z,3.8
2024-04-25T11:52:47.353Z,3.4
2024-04-25T11:53:47.559Z,3.7
2024-04-25T11:54:47.416Z,2.8
2024-04-25T11:55:47.427Z,1.3
2024-04-25T11:56:47.475Z,3.8
2024-04-25T11:57:47.387Z,3.1
2024-04-25T11:58:47.345Z,2
2024-04-25T11:59:47.418Z,2.3
2024-04-25T12:00:47.420Z,4
2024-04-25T12:01:48.180Z,4.1
2024-04-25T12:02:47.434Z,4.7
2024-04-25T12:03:47.378Z,3.6
2024-04-25T12:04:47.402Z,2.6
2024-04-25T12:05:47.516Z,3.6
2024-04-25T12:06:47.336Z,3.4
2024-04-25T12:07:47.341Z,3
2024-04-25T12:08:47.390Z,2
2024-04-25T12:09:47.368Z,2.5
2024-04-25T12:10:47.372Z,3.7
2024-04-25T12:11:50.976Z,2.4
2024-04-25T12:12:47.395Z,2.6
2024-04-25T12:13:47.377Z,2.6
2024-04-25T12:14:47.393Z,3
2024-04-25T12:15:47.348Z,2.8
2024-04-25T12:16:47.369Z,1.5
2024-04-25T12:17:47.462Z,4.2
2024-04-25T12:18:47.429Z,3.5
2024-04-25T12:19:47.385Z,2
2024-04-25T12:20:47.514Z,2.6
2024-04-25T12:21:47.314Z,1.7
2024-04-25T12:22:47.389Z,3.2
2024-04-25T12:23:47.462Z,3.2
2024-04-25T12:24:47.478Z,3.6
2024-04-25T12:25:47.370Z,1.7
2024-04-25T12:26:47.421Z,1.6
2024-04-25T12:27:47.354Z,3.6
2024-04-25T12:28:47.356Z,0.7
2024-04-25T12:29:47.461Z,2.9
2024-04-25T12:30:47.336Z,2.2
2024-04-25T12:31:47.388Z,1.2
2024-04-25T12:32:47.464Z,2.3
2024-04-25T12:33:47.497Z,1.1
2024-04-25T12:34:47.357Z,1.8
2024-04-25T12:35:47.470Z,1.2
2024-04-25T12:36:47.373Z,2.5
2024-04-25T12:37:47.375Z,2.4
2024-04-25T12:38:47.413Z,2.6
2024-04-25T12:39:47.377Z,1.8
2024-04-25T12:40:47.379Z,0.7
2024-04-25T12:41:47.457Z,2.2
2024-04-25T12:42:47.385Z,1.6
2024-04-25T12:43:47.367Z,2.3
2024-04-25T12:44:47.399Z,1
2024-04-25T12:45:47.390Z,1.4
2024-04-25T12:46:47.389Z,1.6
2024-04-25T12:47:47.512Z,0.9
2024-04-25T12:48:47.482Z,0.5
2024-04-25T12:49:47.352Z,2.2
2024-04-25T12:50:47.356Z,3.1
2024-04-25T12:51:47.380Z,2.8
2024-04-25T12:52:47.360Z,1.8
2024-04-25T12:53:47.470Z,2.6
2024-04-25T12:54:47.391Z,1.6
2024-04-25T12:55:47.360Z,2.2
2024-04-25T12:56:47.406Z,0.9
2024-04-25T12:57:47.354Z,1.3
2024-04-25T12:58:47.349Z,0.7
2024-04-25T12:59:47.435Z,2.8
2024-04-25T13:00:47.409Z,1
2024-04-25T13:01:47.360Z,1.9
2024-04-25T13:02:47.404Z,2.9
2024-04-25T13:03:47.390Z,0.6
2024-04-25T13:04:47.389Z,3.5
2024-04-25T13:05:47.425Z,3.4
2024-04-25T13:06:47.380Z,2.6
2024-04-25T13:07:47.378Z,2.3
2024-04-25T13:08:47.389Z,2.5
2024-04-25T13:09:47.371Z,3.1
2024-04-25T13:10:47.400Z,2.2
2024-04-25T13:11:47.451Z,1.9
2024-04-25T13:12:47.387Z,2.3
2024-04-25T13:13:47.325Z,1.6
2024-04-25T13:14:47.403Z,0.7
2024-04-25T13:15:47.359Z,2.1
2024-04-25T13:16:47.354Z,1.1
2024-04-25T13:17:47.446Z,1.5
2024-04-25T13:18:47.549Z,0.9
2024-04-25T13:19:47.375Z,2.4
2024-04-25T13:20:47.570Z,1.6
2024-04-25T13:21:47.383Z,0.8
2024-04-25T13:22:47.352Z,0.9
2024-04-25T13:23:47.461Z,2.2
2024-04-25T13:24:47.393Z,1.7
2024-04-25T13:25:47.372Z,2.3
2024-04-25T13:26:47.475Z,1.8
2024-04-25T13:27:47.376Z,1.6
2024-04-25T13:28:47.336Z,1.3
2024-04-25T13:29:47.490Z,0.8
2024-04-25T13:30:47.377Z,1.9
2024-04-25T13:31:47.360Z,2.2
2024-04-25T13:32:50.591Z,1.1
2024-04-25T13:33:47.476Z,1.7
2024-04-25T13:34:47.389Z,3.9
2024-04-25T13:35:47.407Z,2
2024-04-25T13:36:47.387Z,5.3
2024-04-25T13:37:47.367Z,2
2024-04-25T13:38:47.385Z,2.7
2024-04-25T13:39:47.383Z,1.3
2024-04-25T13:40:47.377Z,2.7
2024-04-25T13:41:47.489Z,2.7
2024-04-25T13:42:47.395Z,3.8
2024-04-25T13:43:47.360Z,2.7
2024-04-25T13:44:47.593Z,1.8
2024-04-25T13:45:47.385Z,2
2024-04-25T13:46:47.377Z,2.6
2024-04-25T13:47:47.428Z,1.8
2024-04-25T13:48:47.427Z,4
2024-04-25T13:49:48.342Z,1.5
2024-04-25T13:50:47.689Z,2.7
2024-04-25T13:51:47.371Z,1.6